createdAt,value
2023-01-27T00:00:59.927Z,100291.91
2023-01-27T00:03:26.956Z,100307.50
2023-01-27T00:05:53.999Z,100308.78
2023-01-27T00:08:21.800Z,100309.56
2023-01-27T00:11:08.718Z,100297.59
2023-01-27T00:13:35.687Z,100306.91
2023-01-27T00:16:02.687Z,100314.88
2023-01-27T00:18:29.690Z,100278.03
2023-01-27T00:21:15.401Z,100309.38
2023-01-27T00:24:01.333Z,100302.50
2023-01-27T00:26:28.593Z,100310.25
2023-01-27T00:28:55.737Z,100314.66
2023-01-27T00:31:41.172Z,100294.56
2023-01-27T00:34:11.127Z,100287.97
2023-01-27T00:36:40.854Z,100316.25
2023-01-27T00:39:09.527Z,100306.53
2023-01-27T00:41:37.080Z,100279.41
2023-01-27T00:44:05.850Z,100260.28
2023-01-27T00:46:33.445Z,100291.31
2023-01-27T00:49:01.416Z,100294.56
2023-01-27T00:51:28.455Z,100285.41
2023-01-27T00:53:55.474Z,100291.69
2023-01-27T00:56:22.482Z,100291.59
2023-01-27T00:58:49.439Z,100292.97
2023-01-27T01:01:17.784Z,100285.53
2023-01-27T01:03:45.959Z,100269.50
2023-01-27T01:06:15.968Z,100289.75
2023-01-27T01:08:43.490Z,100289.06
2023-01-27T01:11:14.129Z,100288.34
2023-01-27T01:13:42.648Z,100282.38
2023-01-27T01:16:12.662Z,100264.41
2023-01-27T01:18:39.666Z,100284.66
2023-01-27T01:21:07.241Z,100282.97
2023-01-27T01:23:37.650Z,100248.69
2023-01-27T01:26:04.904Z,100271.75
2023-01-27T01:28:31.887Z,100283.66
2023-01-27T01:31:28.351Z,100272.16
2023-01-27T01:33:55.648Z,100272.84
2023-01-27T01:36:23.178Z,100276.19
2023-01-27T01:38:56.417Z,100283.16
2023-01-27T01:41:25.108Z,100258.44
2023-01-27T01:43:52.437Z,100269.44
2023-01-27T01:46:20.108Z,100256.66
2023-01-27T01:48:56.052Z,100275.91
2023-01-27T01:51:41.474Z,100282.38
2023-01-27T01:54:13.947Z,100281.97
2023-01-27T01:56:54.100Z,100275.41
2023-01-27T01:59:25.787Z,100274.69
2023-01-27T02:01:57.248Z,100244.69
2023-01-27T02:04:28.802Z,100271.00
2023-01-27T02:07:10.255Z,100253.00
2023-01-27T02:09:39.224Z,100267.75
2023-01-27T02:12:06.793Z,100255.28
2023-01-27T02:14:37.912Z,100247.22
2023-01-27T02:17:25.006Z,100250.19
2023-01-27T02:20:06.774Z,100248.41
2023-01-27T02:22:39.378Z,100256.81
2023-01-27T02:25:32.847Z,100262.94
2023-01-27T02:27:59.925Z,100217.38
2023-01-27T02:30:27.687Z,100259.09
2023-01-27T02:32:54.716Z,100262.81
2023-01-27T02:35:41.740Z,100266.06
2023-01-27T02:38:11.528Z,100258.22
2023-01-27T02:40:40.580Z,100249.38
2023-01-27T02:43:07.610Z,100233.28
2023-01-27T02:45:34.662Z,100257.59
2023-01-27T02:48:01.662Z,100257.59
2023-01-27T02:50:28.704Z,100262.91
2023-01-27T02:52:55.669Z,100252.59
2023-01-27T02:55:22.883Z,100246.69
2023-01-27T02:57:51.401Z,100263.69
2023-01-27T03:00:45.072Z,100254.28
2023-01-27T03:03:13.141Z,100251.41
2023-01-27T03:05:41.147Z,100266.00
2023-01-27T03:08:08.318Z,100267.03
2023-01-27T03:10:35.894Z,100227.34
2023-01-27T03:13:03.054Z,100224.91
2023-01-27T03:15:48.679Z,100232.47
2023-01-27T03:18:23.284Z,100252.09
2023-01-27T03:20:50.648Z,100254.66
2023-01-27T03:23:19.492Z,100252.31
2023-01-27T03:25:50.559Z,100212.75
2023-01-27T03:28:18.788Z,100260.16
2023-01-27T03:31:08.405Z,100232.38
2023-01-27T03:33:49.264Z,100247.22
2023-01-27T03:36:42.916Z,100240.34
2023-01-27T03:39:28.589Z,100236.03
2023-01-27T03:42:13.973Z,100245.34
2023-01-27T03:45:00.046Z,100248.56
2023-01-27T03:47:27.082Z,100255.34
2023-01-27T03:49:54.036Z,100259.75
2023-01-27T03:52:20.980Z,100245.44
2023-01-27T03:54:48.914Z,100241.63
2023-01-27T03:57:15.882Z,100248.78
2023-01-27T03:59:42.837Z,100268.41
2023-01-27T04:02:28.319Z,100274.28
2023-01-27T04:05:13.864Z,100272.31
2023-01-27T04:07:40.932Z,100276.91
2023-01-27T04:10:08.390Z,100274.34
2023-01-27T04:12:35.345Z,100272.22
2023-01-27T04:15:02.308Z,100277.97
2023-01-27T04:17:38.828Z,100249.81
2023-01-27T04:20:06.278Z,100278.75
2023-01-27T04:22:33.272Z,100284.09
2023-01-27T04:25:00.288Z,100276.44
2023-01-27T04:27:27.407Z,100281.63
2023-01-27T04:29:54.466Z,100277.22
2023-01-27T04:32:21.445Z,100265.91
2023-01-27T04:34:48.407Z,100282.69
2023-01-27T04:37:15.425Z,100265.91
2023-01-27T04:39:42.382Z,100260.63
2023-01-27T04:42:09.340Z,100218.59
2023-01-27T04:44:36.329Z,100280.03
2023-01-27T04:47:03.382Z,100283.31
2023-01-27T04:49:30.396Z,100294.28
2023-01-27T04:51:57.467Z,100293.19
2023-01-27T04:54:24.512Z,100307.03
2023-01-27T04:57:00.202Z,100291.94
2023-01-27T04:59:27.275Z,100285.94
2023-01-27T05:01:54.448Z,100290.16
2023-01-27T05:04:21.633Z,100288.81
2023-01-27T05:06:49.118Z,100248.91
2023-01-27T05:09:16.168Z,100291.34
2023-01-27T05:11:43.128Z,100286.91
2023-01-27T05:14:10.151Z,100282.31
2023-01-27T05:16:38.823Z,100288.31
2023-01-27T05:19:05.963Z,100298.59
2023-01-27T05:21:32.925Z,100276.88
2023-01-27T05:24:00.022Z,100251.44
2023-01-27T05:26:28.243Z,100294.06
2023-01-27T05:28:58.370Z,100304.69
2023-01-27T05:31:28.575Z,100299.38
2023-01-27T05:33:56.751Z,100268.91
2023-01-27T05:36:25.467Z,100291.28
2023-01-27T05:38:54.102Z,100315.16
2023-01-27T05:41:21.865Z,100315.44
2023-01-27T05:43:53.199Z,100283.03
2023-01-27T05:46:25.193Z,100304.34
2023-01-27T05:48:54.531Z,100325.44
2023-01-27T05:51:23.485Z,100328.31
2023-01-27T05:53:51.017Z,100317.25
2023-01-27T05:56:19.230Z,100300.41
2023-01-27T05:58:46.377Z,100321.06
2023-01-27T06:01:15.883Z,100322.25
2023-01-27T06:03:43.443Z,100250.66
2023-01-27T06:06:12.007Z,100325.50
2023-01-27T06:08:39.817Z,100321.44
2023-01-27T06:11:06.865Z,100217.84
2023-01-27T06:13:36.050Z,100325.88
2023-01-27T06:16:04.577Z,100314.06
2023-01-27T06:18:32.126Z,100317.19
2023-01-27T06:21:00.641Z,100331.16
2023-01-27T06:23:27.692Z,100313.13
2023-01-27T06:25:56.265Z,100319.84
2023-01-27T06:28:29.180Z,100321.19
2023-01-27T06:31:04.369Z,100326.28
2023-01-27T06:33:31.389Z,100342.59
2023-01-27T06:36:03.652Z,100342.38
2023-01-27T06:38:30.733Z,100340.09
2023-01-27T06:40:57.861Z,100313.31
2023-01-27T06:43:24.941Z,100335.22
2023-01-27T06:45:53.129Z,100339.72
2023-01-27T06:48:20.535Z,100318.81
2023-01-27T06:50:47.686Z,100342.03
2023-01-27T06:53:14.667Z,100337.41
2023-01-27T06:55:42.044Z,100345.56
2023-01-27T06:58:09.833Z,100350.19
2023-01-27T07:00:37.553Z,100350.28
2023-01-27T07:03:05.518Z,100344.28
2023-01-27T07:05:33.554Z,100338.78
2023-01-27T07:08:01.143Z,100343.09
2023-01-27T07:10:28.110Z,100348.09
2023-01-27T07:13:07.601Z,100347.41
2023-01-27T07:15:35.198Z,100358.69
2023-01-27T07:18:03.126Z,100352.00
2023-01-27T07:20:31.176Z,100343.38
2023-01-27T07:23:02.754Z,100359.50
2023-01-27T07:25:31.546Z,100364.28
2023-01-27T07:27:59.525Z,100361.84
2023-01-27T07:30:27.303Z,100349.16
2023-01-27T07:32:55.487Z,100358.88
2023-01-27T07:35:23.721Z,100365.00
2023-01-27T07:37:50.760Z,100354.47
2023-01-27T07:40:18.615Z,100377.47
2023-01-27T07:42:45.639Z,100377.56
2023-01-27T07:45:12.659Z,100357.53
2023-01-27T07:47:40.179Z,100336.47
2023-01-27T07:50:08.295Z,100375.22
2023-01-27T07:52:35.295Z,100367.81
2023-01-27T07:55:02.380Z,100383.84
2023-01-27T07:57:31.013Z,100366.28
2023-01-27T07:59:58.086Z,100360.53
2023-01-27T08:02:26.111Z,100385.84
2023-01-27T08:04:53.953Z,100386.72
2023-01-27T08:07:21.380Z,100386.91
2023-01-27T08:09:48.976Z,100360.28
2023-01-27T08:12:16.221Z,100337.69
2023-01-27T08:14:43.217Z,100376.59
2023-01-27T08:17:10.183Z,100315.31
2023-01-27T08:19:37.413Z,100389.78
2023-01-27T08:22:04.363Z,100358.44
2023-01-27T08:24:31.344Z,100388.22
2023-01-27T08:26:58.303Z,100375.94
2023-01-27T08:29:25.341Z,100376.66
2023-01-27T08:31:52.345Z,100387.84
2023-01-27T08:34:19.615Z,100383.50
2023-01-27T08:36:46.640Z,100363.09
2023-01-27T08:39:13.740Z,100386.56
2023-01-27T08:41:40.743Z,100375.94
2023-01-27T08:44:07.834Z,100353.66
2023-01-27T08:46:35.120Z,100375.06
2023-01-27T08:49:02.107Z,100372.03
2023-01-27T08:51:29.271Z,100370.16
2023-01-27T08:53:56.474Z,100373.72
2023-01-27T08:56:23.950Z,100374.69
2023-01-27T08:58:52.530Z,100379.31
2023-01-27T09:01:20.627Z,100382.03
2023-01-27T09:03:47.661Z,100381.56
2023-01-27T09:06:16.186Z,100382.91
2023-01-27T09:08:44.722Z,100386.56
2023-01-27T09:11:16.857Z,100390.31
2023-01-27T09:13:44.548Z,100387.63
2023-01-27T09:16:11.494Z,100362.88
2023-01-27T09:18:38.543Z,100380.38
2023-01-27T09:21:06.773Z,100383.13
2023-01-27T09:23:34.519Z,100343.84
2023-01-27T09:26:01.752Z,100375.25
2023-01-27T09:28:28.799Z,100386.66
2023-01-27T09:30:59.689Z,100360.94
2023-01-27T09:33:27.435Z,100387.84
2023-01-27T09:36:02.305Z,100374.66
2023-01-27T09:38:34.904Z,100385.78
2023-01-27T09:41:29.358Z,100384.66
2023-01-27T09:44:11.237Z,100385.94
2023-01-27T09:47:07.894Z,100382.59
2023-01-27T09:49:43.962Z,100386.25
2023-01-27T09:52:48.746Z,100375.84
2023-01-27T09:55:37.213Z,100383.38
2023-01-27T09:58:14.834Z,100376.03
2023-01-27T10:00:44.501Z,100382.81
2023-01-27T10:03:26.381Z,100322.91
2023-01-27T10:05:53.390Z,100385.06
2023-01-27T10:08:56.684Z,100361.50
2023-01-27T10:11:29.662Z,100375.63
2023-01-27T10:13:59.669Z,100365.16
2023-01-27T10:16:38.652Z,100379.78
2023-01-27T10:19:10.786Z,100369.75
2023-01-27T10:21:59.610Z,100386.97
2023-01-27T10:24:33.259Z,100332.16
2023-01-27T10:27:18.510Z,100358.38
2023-01-27T10:29:51.758Z,100375.16
2023-01-27T10:32:39.170Z,100341.25
2023-01-27T10:35:09.312Z,100381.03
2023-01-27T10:38:03.640Z,100378.56
2023-01-27T10:40:39.558Z,100378.97
2023-01-27T10:43:20.389Z,100375.03
2023-01-27T10:45:58.627Z,100389.84
2023-01-27T10:48:43.968Z,100388.97
2023-01-27T10:51:20.142Z,100400.97
2023-01-27T10:54:01.474Z,100376.59
2023-01-27T10:56:48.396Z,100394.38
2023-01-27T10:59:22.353Z,100393.31
2023-01-27T11:02:04.245Z,100393.91
2023-01-27T11:04:39.400Z,100403.31
2023-01-27T11:07:07.053Z,100396.06
2023-01-27T11:09:43.834Z,100399.00
2023-01-27T11:12:14.858Z,100387.69
2023-01-27T11:14:52.368Z,100396.53
2023-01-27T11:17:42.736Z,100404.50
2023-01-27T11:20:13.126Z,100381.53
2023-01-27T11:23:04.539Z,100393.00
2023-01-27T11:25:47.179Z,100371.88
2023-01-27T11:28:25.917Z,100398.69
2023-01-27T11:31:29.914Z,100362.66
2023-01-27T11:34:07.304Z,100392.59
2023-01-27T11:36:35.276Z,100397.81
2023-01-27T11:39:04.876Z,100367.25
2023-01-27T11:41:38.502Z,100395.81
2023-01-27T11:44:18.443Z,100398.91
2023-01-27T11:46:47.137Z,100406.66
2023-01-27T11:49:24.102Z,100398.28
2023-01-27T11:51:51.235Z,100409.59
2023-01-27T11:54:23.690Z,100384.44
2023-01-27T11:56:51.351Z,100397.78
2023-01-27T11:59:26.138Z,100403.88
2023-01-27T12:01:58.026Z,100408.09
2023-01-27T12:05:02.142Z,100406.72
2023-01-27T12:07:46.731Z,100421.34
2023-01-27T12:10:25.972Z,100403.19
2023-01-27T12:12:53.407Z,100408.38
2023-01-27T12:15:20.624Z,100387.78
2023-01-27T12:18:00.943Z,100407.91
2023-01-27T12:20:40.674Z,100409.59
2023-01-27T12:23:47.492Z,100404.75
2023-01-27T12:26:14.569Z,100407.84
2023-01-27T12:28:54.868Z,100413.13
2023-01-27T12:31:31.105Z,100398.19
2023-01-27T12:34:05.849Z,100420.97
2023-01-27T12:36:44.333Z,100414.50
2023-01-27T12:39:45.117Z,100424.84
2023-01-27T12:42:36.303Z,100424.47
2023-01-27T12:45:38.363Z,100427.69
2023-01-27T12:48:14.665Z,100435.19
2023-01-27T12:50:51.100Z,100430.88
2023-01-27T12:53:21.858Z,100434.97
2023-01-27T12:56:01.258Z,100403.16
2023-01-27T12:58:42.210Z,100421.72
2023-01-27T13:01:30.406Z,100437.53
2023-01-27T13:04:05.042Z,100441.50
2023-01-27T13:07:02.412Z,100442.94
2023-01-27T13:10:08.394Z,100447.34
2023-01-27T13:12:50.016Z,100442.75
2023-01-27T13:15:28.922Z,100440.00
2023-01-27T13:17:57.965Z,100440.78
2023-01-27T13:20:49.835Z,100447.47
2023-01-27T13:23:23.385Z,100428.91
2023-01-27T13:26:13.277Z,100442.94
2023-01-27T13:29:25.001Z,100448.94
2023-01-27T13:31:58.629Z,100435.50
2023-01-27T13:34:51.663Z,100444.16
2023-01-27T13:37:43.948Z,100448.47
2023-01-27T13:40:49.278Z,100453.19
2023-01-27T13:43:27.205Z,100450.13
2023-01-27T13:46:00.467Z,100456.22
2023-01-27T13:48:32.962Z,100457.72
2023-01-27T13:51:13.057Z,100464.09
2023-01-27T13:53:40.781Z,100457.81
2023-01-27T13:56:13.829Z,100437.66
2023-01-27T13:58:51.477Z,100455.06
2023-01-27T14:01:48.043Z,100477.16
2023-01-27T14:04:33.167Z,100467.63
2023-01-27T14:07:11.926Z,100454.44
2023-01-27T14:10:04.750Z,100477.25
2023-01-27T14:12:31.675Z,100481.97
2023-01-27T14:15:26.298Z,100484.63
2023-01-27T14:18:14.352Z,100487.41
2023-01-27T14:20:55.783Z,100482.06
2023-01-27T14:23:51.061Z,100478.63
2023-01-27T14:26:39.771Z,100489.03
2023-01-27T14:29:37.885Z,100490.44
2023-01-27T14:32:04.964Z,100496.91
2023-01-27T14:34:47.077Z,100499.25
2023-01-27T14:37:27.117Z,100497.22
2023-01-27T14:40:24.728Z,100494.34
2023-01-27T14:43:03.532Z,100517.53
2023-01-27T14:45:37.167Z,100519.50
2023-01-27T14:48:19.191Z,100519.13
2023-01-27T14:51:23.663Z,100516.88
2023-01-27T14:54:12.018Z,100522.88
2023-01-27T14:57:05.677Z,100526.31
2023-01-27T14:59:52.601Z,100529.91
2023-01-27T15:02:43.947Z,100531.31
2023-01-27T15:05:24.837Z,100535.41
2023-01-27T15:07:58.028Z,100536.50
2023-01-27T15:10:30.477Z,100527.66
2023-01-27T15:13:17.795Z,100535.53
2023-01-27T15:16:02.665Z,100529.31
2023-01-27T15:18:50.781Z,100529.63
2023-01-27T15:21:48.552Z,100531.81
2023-01-27T15:24:52.515Z,100533.47
2023-01-27T15:27:21.115Z,100511.03
2023-01-27T15:29:48.725Z,100515.34
2023-01-27T15:32:16.434Z,100518.41
2023-01-27T15:34:45.597Z,100524.97
2023-01-27T15:37:14.001Z,100511.22
2023-01-27T15:40:03.917Z,100539.53
2023-01-27T15:42:55.819Z,100540.63
2023-01-27T15:45:41.678Z,100542.00
2023-01-27T15:48:11.661Z,100548.06
2023-01-27T15:50:45.286Z,100544.31
2023-01-27T15:53:16.010Z,100535.09
2023-01-27T15:55:54.689Z,100536.75
2023-01-27T15:58:24.083Z,100550.13
2023-01-27T16:00:53.838Z,100550.72
2023-01-27T16:03:35.430Z,100550.91
2023-01-27T16:06:12.457Z,100553.88
2023-01-27T16:08:44.464Z,100557.72
2023-01-27T16:11:29.925Z,100550.16
2023-01-27T16:14:12.280Z,100528.31
2023-01-27T16:16:52.215Z,100509.19
2023-01-27T16:19:40.839Z,100564.88
2023-01-27T16:22:15.468Z,100558.69
2023-01-27T16:24:47.382Z,100564.09
2023-01-27T16:27:14.331Z,100561.72
2023-01-27T16:30:06.836Z,100566.06
2023-01-27T16:32:39.997Z,100568.00
2023-01-27T16:35:16.199Z,100566.44
2023-01-27T16:38:06.639Z,100573.13
2023-01-27T16:40:35.666Z,100564.06
2023-01-27T16:43:08.434Z,100578.91
2023-01-27T16:45:55.465Z,100573.59
2023-01-27T16:48:39.337Z,100571.16
2023-01-27T16:51:20.181Z,100574.97
2023-01-27T16:53:49.830Z,100574.28
2023-01-27T16:56:28.882Z,100570.94
2023-01-27T16:59:06.262Z,100570.75
2023-01-27T17:01:47.723Z,100514.06
2023-01-27T17:04:25.434Z,100506.75
2023-01-27T17:07:03.886Z,100577.09
2023-01-27T17:09:32.692Z,100543.53
2023-01-27T17:11:59.763Z,100572.78
2023-01-27T17:14:34.470Z,100575.63
2023-01-27T17:17:04.273Z,100563.59
2023-01-27T17:19:37.097Z,100563.13
2023-01-27T17:22:23.840Z,100579.16
2023-01-27T17:24:56.610Z,100553.84
2023-01-27T17:27:31.028Z,100572.56
2023-01-27T17:30:06.429Z,100584.06
2023-01-27T17:32:40.225Z,100585.75
2023-01-27T17:35:33.278Z,100540.88
2023-01-27T17:38:24.366Z,100565.69
2023-01-27T17:40:54.242Z,100576.22
2023-01-27T17:43:34.996Z,100588.41
2023-01-27T17:46:04.912Z,100592.53
2023-01-27T17:48:41.046Z,100593.06
2023-01-27T17:51:12.913Z,100581.00
2023-01-27T17:53:42.590Z,100580.31
2023-01-27T17:56:21.441Z,100590.38
2023-01-27T17:58:53.908Z,100592.84
2023-01-27T18:01:21.756Z,100561.25
2023-01-27T18:03:53.135Z,100587.50
2023-01-27T18:06:24.998Z,100606.69
2023-01-27T18:08:54.795Z,100607.38
2023-01-27T18:11:31.211Z,100608.25
2023-01-27T18:14:01.682Z,100610.59
2023-01-27T18:16:29.920Z,100601.16
2023-01-27T18:19:18.123Z,100605.13
2023-01-27T18:21:45.302Z,100608.47
2023-01-27T18:24:23.752Z,100604.13
2023-01-27T18:26:50.925Z,100591.03
2023-01-27T18:29:29.789Z,100596.09
2023-01-27T18:31:59.600Z,100613.06
2023-01-27T18:34:29.605Z,100614.22
2023-01-27T18:37:01.319Z,100613.25
2023-01-27T18:39:35.065Z,100617.69
2023-01-27T18:42:03.757Z,100610.69
2023-01-27T18:44:37.278Z,100618.44
2023-01-27T18:47:19.541Z,100625.03
2023-01-27T18:50:25.681Z,100605.06
2023-01-27T18:52:53.252Z,100621.69
2023-01-27T18:55:25.740Z,100622.59
2023-01-27T18:57:55.184Z,100625.13
2023-01-27T19:00:28.597Z,100625.03
2023-01-27T19:03:01.072Z,100631.03
2023-01-27T19:05:35.954Z,100633.50
2023-01-27T19:08:03.398Z,100616.22
2023-01-27T19:10:35.196Z,100631.03
2023-01-27T19:13:03.965Z,100629.25
2023-01-27T19:15:34.141Z,100628.38
2023-01-27T19:18:07.319Z,100616.88
2023-01-27T19:20:34.307Z,100634.78
2023-01-27T19:23:01.321Z,100641.56
2023-01-27T19:25:30.825Z,100615.09
2023-01-27T19:28:04.926Z,100621.88
2023-01-27T19:30:36.697Z,100644.31
2023-01-27T19:33:13.064Z,100628.09
2023-01-27T19:35:42.193Z,100649.06
2023-01-27T19:38:12.457Z,100642.50
2023-01-27T19:40:39.479Z,100644.28
2023-01-27T19:43:06.419Z,100650.03
2023-01-27T19:45:33.610Z,100644.75
2023-01-27T19:48:01.191Z,100626.91
2023-01-27T19:50:31.563Z,100651.44
2023-01-27T19:52:58.844Z,100650.41
2023-01-27T19:55:26.148Z,100622.84
2023-01-27T19:57:53.854Z,100650.22
2023-01-27T20:00:28.030Z,100642.91
2023-01-27T20:02:56.243Z,100654.34
2023-01-27T20:05:25.971Z,100630.50
2023-01-27T20:07:58.451Z,100649.09
2023-01-27T20:10:31.615Z,100635.34
2023-01-27T20:13:00.997Z,100653.19
2023-01-27T20:15:31.948Z,100638.06
2023-01-27T20:17:59.423Z,100653.00
2023-01-27T20:20:27.566Z,100650.59
2023-01-27T20:22:55.035Z,100654.69
2023-01-27T20:25:24.568Z,100643.16
2023-01-27T20:27:56.985Z,100655.56
2023-01-27T20:30:26.977Z,100658.63
2023-01-27T20:32:56.260Z,100646.72
2023-01-27T20:35:24.286Z,100611.31
2023-01-27T20:37:52.853Z,100642.41
2023-01-27T20:40:25.277Z,100660.34
2023-01-27T20:42:52.531Z,100650.72
2023-01-27T20:45:20.616Z,100665.78
2023-01-27T20:47:53.718Z,100662.31
2023-01-27T20:50:22.944Z,100652.56
2023-01-27T20:52:51.438Z,100653.69
2023-01-27T20:55:21.827Z,100661.34
2023-01-27T20:57:49.349Z,100663.00
2023-01-27T21:00:21.142Z,100663.69
2023-01-27T21:02:48.916Z,100653.13
2023-01-27T21:05:16.375Z,100649.94
2023-01-27T21:07:43.698Z,100656.41
2023-01-27T21:10:11.411Z,100662.31
2023-01-27T21:12:40.060Z,100654.44
2023-01-27T21:15:10.005Z,100654.44
2023-01-27T21:17:37.574Z,100647.28
2023-01-27T21:20:05.171Z,100662.09
2023-01-27T21:22:34.594Z,100652.84
2023-01-27T21:25:01.876Z,100666.94
2023-01-27T21:27:30.418Z,100658.25
2023-01-27T21:29:57.428Z,100671.94
2023-01-27T21:32:24.393Z,100660.44
2023-01-27T21:34:51.351Z,100668.69
2023-01-27T21:37:18.391Z,100653.06
2023-01-27T21:39:45.357Z,100672.34
2023-01-27T21:42:14.312Z,100668.00
2023-01-27T21:44:59.849Z,100668.59
2023-01-27T21:47:27.073Z,100685.03
2023-01-27T21:50:04.096Z,100663.97
2023-01-27T21:52:32.686Z,100659.31
2023-01-27T21:55:01.427Z,100693.56
2023-01-27T21:57:30.811Z,100680.00
2023-01-27T21:59:57.951Z,100683.56
2023-01-27T22:02:25.548Z,100682.97
2023-01-27T22:04:52.691Z,100675.53
2023-01-27T22:07:20.129Z,100666.66
2023-01-27T22:09:47.973Z,100670.66
2023-01-27T22:12:16.472Z,100681.63
2023-01-27T22:14:44.056Z,100668.72
2023-01-27T22:17:11.163Z,100681.31
2023-01-27T22:19:39.293Z,100681.63
2023-01-27T22:22:12.040Z,100678.09
2023-01-27T22:24:39.295Z,100684.00
2023-01-27T22:27:06.337Z,100685.66
2023-01-27T22:29:33.273Z,100674.44
2023-01-27T22:32:00.302Z,100687.03
2023-01-27T22:34:27.337Z,100687.59
2023-01-27T22:36:54.365Z,100681.44
2023-01-27T22:39:21.681Z,100671.66
2023-01-27T22:41:50.408Z,100691.06
2023-01-27T22:44:18.040Z,100693.59
2023-01-27T22:46:45.034Z,100701.69
2023-01-27T22:49:12.069Z,100695.59
2023-01-27T22:51:39.146Z,100687.84
2023-01-27T22:54:06.546Z,100680.53
2023-01-27T22:56:33.620Z,100682.97
2023-01-27T22:59:00.745Z,100709.19
2023-01-27T23:01:29.642Z,100706.22
2023-01-27T23:03:56.649Z,100711.88
2023-01-27T23:06:23.668Z,100721.22
2023-01-27T23:08:50.667Z,100714.34
2023-01-27T23:11:17.685Z,100706.94
2023-01-27T23:13:44.583Z,100720.81
2023-01-27T23:16:11.602Z,100719.94
2023-01-27T23:18:38.541Z,100716.31
2023-01-27T23:21:07.242Z,100721.97
2023-01-27T23:23:37.502Z,100731.50
2023-01-27T23:26:08.699Z,100735.53
2023-01-27T23:28:38.423Z,100728.34
2023-01-27T23:31:09.881Z,100724.56
2023-01-27T23:33:38.468Z,100728.50
2023-01-27T23:36:07.381Z,100694.47
2023-01-27T23:38:35.952Z,100711.13
2023-01-27T23:41:13.703Z,100729.88
2023-01-27T23:43:40.793Z,100747.50
2023-01-27T23:46:07.787Z,100718.16
2023-01-27T23:48:35.311Z,100739.78
2023-01-27T23:51:10.337Z,100750.44
2023-01-27T23:53:37.345Z,100737.56
2023-01-27T23:56:05.371Z,100737.66
2023-01-27T23:58:32.445Z,100741.16
